Flight Track Log - Related Links

Times and Time Zones

All times are in EDT time to prevent confusion due to time zone crossing. See the SWA1725 flight status page for this flight to view local times or setup timezone preferences in your user account.

Time Position Orientation Groundspeed Altitude Reporting Facility
EDT Latitude Longitude Course Direction KTS MPH feet Rate Location/Type
Sun 11:39:45 AM 32.7436 -117.2194 310° West 162 186 1,200  Level Los Angeles Center
Sun 11:40:46 AM 32.7747 -117.2778 302° West 200 230 3,500 2,488 Climbing Los Angeles Center
Sun 11:41:48 AM 32.8153 -117.3578 301° West 264 304 6,300 3,317 Climbing Los Angeles Center
Sun 11:42:49 AM 32.8603 -117.4392 303° West 289 333 10,300 3,366 Climbing Los Angeles Center
Sun 11:43:51 AM 32.9206 -117.5217 311° West 335 386 13,200 3,290 Climbing Los Angeles Center
Sun 11:44:53 AM 33.0044 -117.5883 326° Northwest 360 414 17,100 3,561 Climbing Los Angeles Center
Sun 11:45:00 AM 33.0570 -117.6465 310° West  Level FlightAware Approximate
Sun 11:45:54 AM 33.0772 -117.6758 315° West 375 432 20,500  Level Los Angeles Center
Sun 11:46:56 AM 33.1444 -117.7783 308° West 390 449 23,000 2,419 Climbing Los Angeles Center
Sun 11:47:58 AM 33.2144 -117.8847 308° West 403 464 25,500 2,226 Climbing Los Angeles Center
Sun 11:49:00 AM 33.2903 -117.9922 310° West 419 482 27,600 2,098 Climbing Los Angeles Center
Sun 11:50:01 AM 33.3850 -118.1278 310° West 440 506 29,800 1,902 Climbing Los Angeles Center
Sun 11:51:03 AM 33.4506 -118.2211 310° West 451 519 31,500 2,371 Climbing Los Angeles Center
Sun 11:52:05 AM 33.5442 -118.3600 309° West 445 512 34,700 2,565 Climbing Los Angeles Center
Sun 11:53:07 AM 33.6222 -118.4708 310° West 430 495 36,800 1,805 Climbing Los Angeles Center
Sun 11:54:08 AM 33.6989 -118.5811 310° West 425 489 38,400 1,415 Climbing Los Angeles Center
Sun 11:55:10 AM 33.7739 -118.6889 310° West 416 479 39,700 774 Climbing Los Angeles Center
Sun 11:56:12 AM 33.8325 -118.7750 309° West 415 478 40,000 132 Climbing Los Angeles Center
Sun 11:57:26 AM 33.9203 -118.9042 309° West 413 475 40,000  Level Los Angeles Center
Sun 11:58:28 AM 34.0086 -119.0322 310° West 414 476 40,000  Level Los Angeles Center
Sun 11:59:30 AM 34.0956 -119.1603 309° West 412 474 40,000  Level Los Angeles Center
Sun 12:00:32 PM 34.1692 -119.2678 310° West 415 478 40,000  Level Los Angeles Center
Sun 12:01:33 PM 34.2408 -119.3750 309° West 413 475 40,000  Level Los Angeles Center
Sun 12:02:35 PM 34.3144 -119.4842 309° West 417 480 40,000  Level Los Angeles Center
Sun 12:03:37 PM 34.3883 -119.5928 310° West 418 481 40,000  Level Los Angeles Center
Sun 12:04:39 PM 34.4603 -119.7028 308° West 418 481 40,000  Level Los Angeles Center
Sun 12:05:40 PM 34.5372 -119.8067 312° West 415 478 40,000  Level Los Angeles Center
Sun 12:06:42 PM 34.6333 -119.9053 320° Northwest 413 475 40,000  Level Los Angeles Center
Sun 12:07:44 PM 34.7186 -119.9994 318° Northwest 414 476 40,000  Level Los Angeles Center
Sun 12:08:46 PM 34.8147 -120.1036 318° Northwest 414 476 40,000  Level Los Angeles Center
Sun 12:10:00 PM 34.9158 -120.2153 318° Northwest 415 478 40,000  Level Los Angeles Center
Sun 12:11:02 PM 34.9994 -120.3078 318° Northwest 412 474 40,000  Level Los Angeles Center
Sun 12:12:03 PM 35.0842 -120.4011 318° Northwest 417 480 40,000  Level Los Angeles Center
Sun 12:13:17 PM 35.1836 -120.5133 317° Northwest 413 475 40,000  Level Los Angeles Center
Sun 12:14:19 PM 35.2856 -120.6278 318° Northwest 413 475 40,000  Level Los Angeles Center
Sun 12:15:21 PM 35.3686 -120.7197 318° Northwest 411 473 40,000  Level Los Angeles Center
Sun 12:15:56 PM 35.4233 -120.7672 325° Northwest 410 472 40,000  Level Oakland Center
Sun 12:16:57 PM 35.5156 -120.8481 325° Northwest 405 466 40,000  Level Oakland Center
Sun 12:17:58 PM 35.6081 -120.9297 324° Northwest 407 468 40,000  Level Oakland Center
Sun 12:18:59 PM 35.6997 -121.0117 324° Northwest 407 468 40,000 -585 Level Oakland Center
Sun 12:20:01 PM 35.7911 -121.0939 324° Northwest 405 466 38,800 -1,707 Descending Oakland Center
Sun 12:21:02 PM 35.8814 -121.1742 324° Northwest 402 463 36,500 -2,508 Descending Oakland Center
Sun 12:22:03 PM 35.9939 -121.2761 324° Northwest 414 476 33,700 -2,410 Descending Oakland Center
Sun 12:23:04 PM 36.0869 -121.3583 324° Northwest 414 476 31,600 -1,967 Descending Oakland Center
Sun 12:24:05 PM 36.1750 -121.4406 323° Northwest 400 460 29,700 -1,854 Descending Oakland Center
Sun 12:25:07 PM 36.2633 -121.5181 325° Northwest 392 451 27,800 -1,902 Descending Oakland Center
Sun 12:26:08 PM 36.3508 -121.5983 324° Northwest 391 450 25,800 -1,918 Descending Oakland Center
Sun 12:27:09 PM 36.4347 -121.6775 323° Northwest 381 438 23,900 -1,918 Descending Oakland Center
Sun 12:27:45 PM 36.4833 -121.7333 317° Northwest 370 426 22,700 -1,750 Descending Northern Cal TRACON
Sun 12:28:45 PM 36.5667 -121.8000 327° Northwest 358 412 21,100 -1,500 Descending Northern Cal TRACON
Sun 12:29:45 PM 36.6500 -121.8667 327° Northwest 354 407 19,700 -1,500 Descending Northern Cal TRACON
Sun 12:30:45 PM 36.7167 -121.9500 315° West 342 394 18,100 -1,737 Descending Northern Cal TRACON
Sun 12:31:39 PM 36.8000 -121.9833 342° North 343 395 16,400 -1,789 Descending Northern Cal TRACON
Sun 12:32:39 PM 36.9000 -122.0000 352° North 332 382 14,700 -1,608 Descending Northern Cal TRACON
Sun 12:33:16 PM 36.9400 -122.0156 343° North 331 381 13,800 -1,592 Descending Oakland Center
Sun 12:34:17 PM 37.0283 -122.0375 349° North 324 373 12,100 -1,610 Descending Oakland Center
Sun 12:35:19 PM 37.1133 -122.0594 348° North 314 361 10,500 -1,268 Descending Oakland Center
Sun 12:36:20 PM 37.2128 -122.0869 348° North 305 351 9,500 -1,377 Descending Oakland Center
Sun 12:37:21 PM 37.2925 -122.1081 348° North 295 339 7,700 -1,820 Descending Oakland Center
Sun 12:38:22 PM 37.3736 -122.1303 348° North 298 343 5,800 -1,672 Descending Oakland Center
Sun 12:39:23 PM 37.4497 -122.1497 349° North 286 329 4,300 -1,279 Descending Oakland Center
Sun 12:40:24 PM 37.5194 -122.1742 344° North 268 308 3,200 -976 Descending Oakland Center
Sun 12:41:26 PM 37.5661 -122.2169 324° Northwest 233 268 2,300 -878 Descending Oakland Center
Sun 12:42:27 PM 37.5867 -122.2700 296° West 192 221 1,400 -738 Descending Oakland Center
Sun 12:43:28 PM 37.5914 -122.3119 278° West 149 171 800 -590 Descending Oakland Center
Sun 12:44:29 PM 37.6069 -122.3489 298° West 129 148 200 -590 Descending Oakland Center
Sun 12:46:00 PM 37.6167 -122.3667 322° Northwest  Level FlightAware Approximate
Sun 12:53:00 PM 37.6191 -122.3752 322° Northwest  Level Estimated

Login

Don't have an account? Register now (free) for customized features, flight alerts, and more!